Time;durP1;ratioP1;P1;durP2;ratioP2;P2;SDS_P1;SDS_P2;PMS_P1;PMS_P2;Temp;Humidity;BMP_temperature;BMP_pressure;BME280_temperature;BME280_humidity;BME280_pressure;Samples;Min_cycle;Max_cycle;Signal;HPM_P1;HPM_P2
2021/10/15 00:04:59;;;;;;;6.97;6.37;;;10.20;99.90;;;;;;10168555;29;20222;-82
2021/10/15 00:10:01;;;;;;;8.60;6.37;;;10.20;99.90;;;;;;10168662;29;20244;-82
2021/10/15 00:15:05;;;;;;;7.23;6.53;;;10.20;99.90;;;;;;10181070;29;20213;-82
2021/10/15 00:20:10;;;;;;;6.80;6.30;;;10.20;99.90;;;;;;10182860;29;20203;-82
2021/10/15 00:25:12;;;;;;;7.63;6.93;;;10.20;99.90;;;;;;10183335;29;20209;-82
2021/10/15 00:30:14;;;;;;;8.03;6.97;;;10.20;99.90;;;;;;10185254;29;20229;-83
2021/10/15 00:35:18;;;;;;;6.70;6.10;;;10.20;99.90;;;;;;10184936;29;20550;-82
2021/10/15 00:40:20;;;;;;;8.17;7.30;;;10.20;99.90;;;;;;10170148;29;20236;-82
2021/10/15 00:45:22;;;;;;;7.20;6.60;;;10.10;99.90;;;;;;10204779;29;20209;-82
2021/10/15 00:50:26;;;;;;;7.77;7.07;;;10.10;99.90;;;;;;10200039;29;20248;-82
2021/10/15 00:55:28;;;;;;;7.67;6.97;;;10.00;99.90;;;;;;10180871;29;20679;-82
2021/10/15 01:00:30;;;;;;;7.80;7.20;;;9.90;99.90;;;;;;10178830;29;20307;-82
2021/10/15 01:05:34;;;;;;;7.57;6.83;;;10.00;99.90;;;;;;10192937;29;20213;-82
2021/10/15 01:10:36;;;;;;;7.97;7.30;;;10.00;99.90;;;;;;10184233;29;20229;-82
2021/10/15 01:15:38;;;;;;;7.30;6.80;;;10.00;99.90;;;;;;10180460;29;20315;-82
2021/10/15 01:20:42;;;;;;;8.57;7.87;;;10.00;99.90;;;;;;10181713;29;21255;-82
2021/10/15 01:25:45;;;;;;;7.90;7.10;;;9.90;99.90;;;;;;10164975;29;21425;-82
2021/10/15 01:30:47;;;;;;;8.30;7.60;;;9.90;99.90;;;;;;10198647;29;20311;-83
2021/10/15 01:35:51;;;;;;;7.97;7.30;;;9.80;99.90;;;;;;10182264;29;20213;-82
2021/10/15 01:40:53;;;;;;;7.80;7.07;;;9.80;99.90;;;;;;10181638;29;20221;-82
2021/10/15 01:45:56;;;;;;;7.80;7.10;;;9.70;99.90;;;;;;10198011;29;20224;-82
2021/10/15 01:51:01;;;;;;;7.77;7.03;;;9.70;99.90;;;;;;10165159;29;20333;-82
2021/10/15 01:56:04;;;;;;;6.97;6.47;;;9.70;99.90;;;;;;10180206;29;20221;-82
2021/10/15 02:01:06;;;;;;;7.50;6.80;;;9.60;99.90;;;;;;10180485;29;20615;-82
2021/10/15 02:06:10;;;;;;;7.40;6.80;;;9.60;99.90;;;;;;10199289;29;20648;-82
2021/10/15 02:11:12;;;;;;;6.80;6.20;;;9.60;99.90;;;;;;10181598;29;20326;-82
2021/10/15 02:16:14;;;;;;;7.53;6.93;;;9.60;99.90;;;;;;10166949;29;20212;-82
2021/10/15 02:21:17;;;;;;;6.87;6.30;;;9.50;99.90;;;;;;10183699;29;20596;-83
2021/10/15 02:26:20;;;;;;;7.00;6.40;;;9.50;99.90;;;;;;10196678;29;22099;-83
2021/10/15 02:31:22;;;;;;;7.40;6.40;;;9.50;99.90;;;;;;10170372;29;20232;-82
2021/10/15 02:36:25;;;;;;;6.60;6.10;;;9.50;99.90;;;;;;10171524;29;20205;-82
2021/10/15 02:41:27;;;;;;;6.73;6.23;;;9.50;99.90;;;;;;10181856;29;20441;-83
2021/10/15 02:46:29;;;;;;;7.87;7.17;;;9.50;99.90;;;;;;10186214;29;20213;-82
2021/10/15 02:51:34;;;;;;;6.73;6.23;;;9.50;99.90;;;;;;10182789;29;20237;-82
2021/10/15 02:56:36;;;;;;;7.07;6.53;;;9.50;99.90;;;;;;10200214;29;20209;-82
2021/10/15 03:01:38;;;;;;;7.27;6.67;;;9.40;99.90;;;;;;10184345;29;20236;-82
2021/10/15 03:06:41;;;;;;;7.10;6.50;;;9.40;99.90;;;;;;10204110;29;20308;-82
2021/10/15 03:11:43;;;;;;;7.47;6.87;;;9.40;99.90;;;;;;10187518;29;20241;-82
2021/10/15 03:16:46;;;;;;;7.10;6.50;;;9.30;99.90;;;;;;10182804;29;20213;-82
2021/10/15 03:21:49;;;;;;;6.67;6.07;;;9.30;99.90;;;;;;10184364;29;20218;-82
2021/10/15 03:26:51;;;;;;;6.47;5.90;;;9.30;99.90;;;;;;10188526;29;20220;-82
2021/10/15 03:31:53;;;;;;;6.80;6.30;;;9.30;99.90;;;;;;10189496;29;20528;-83
2021/10/15 03:36:57;;;;;;;6.00;5.50;;;9.30;99.90;;;;;;10189127;29;20221;-83
2021/10/15 03:41:59;;;;;;;6.90;6.40;;;9.30;99.90;;;;;;10205783;29;20231;-82
2021/10/15 03:47:01;;;;;;;6.70;6.20;;;9.20;99.90;;;;;;10189345;29;20304;-82
2021/10/15 03:52:05;;;;;;;6.90;6.30;;;9.20;99.90;;;;;;10189231;29;20701;-82
2021/10/15 03:57:07;;;;;;;6.50;6.10;;;9.20;99.90;;;;;;10189315;29;20469;-83
2021/10/15 04:02:10;;;;;;;6.00;5.60;;;9.20;99.90;;;;;;10188273;29;20262;-83
2021/10/15 04:07:13;;;;;;;6.97;6.47;;;9.20;99.90;;;;;;10173304;29;20231;-82
2021/10/15 04:12:15;;;;;;;6.77;6.23;;;9.20;99.90;;;;;;10187254;29;20268;-82
2021/10/15 04:17:17;;;;;;;7.13;5.67;;;9.20;99.90;;;;;;10199245;29;20933;-82
2021/10/15 04:22:21;;;;;;;6.77;6.27;;;9.20;99.90;;;;;;10190523;29;20285;-82
2021/10/15 04:27:23;;;;;;;7.33;6.70;;;9.20;99.90;;;;;;10204499;29;20273;-82
2021/10/15 04:32:25;;;;;;;6.87;6.27;;;9.10;99.90;;;;;;10197932;29;20738;-82
2021/10/15 04:37:28;;;;;;;27.10;19.67;;;9.10;99.90;;;;;;10188534;29;20213;-82
2021/10/15 04:42:31;;;;;;;70.10;44.47;;;9.10;99.90;;;;;;10204393;23;20237;-80
2021/10/15 04:47:33;;;;;;;62.70;41.90;;;9.10;99.90;;;;;;10201409;29;20232;-81
2021/10/15 04:52:36;;;;;;;49.87;38.73;;;9.10;99.90;;;;;;10196697;28;20237;-81
2021/10/15 04:57:38;;;;;;;13.43;12.00;;;9.10;99.90;;;;;;10220660;29;20213;-80
2021/10/15 05:02:41;;;;;;;13.00;11.80;;;9.00;99.90;;;;;;10224764;29;20260;-80
2021/10/15 05:07:45;;;;;;;10.83;10.13;;;9.10;99.90;;;;;;10193133;29;20204;-81
2021/10/15 05:12:47;;;;;;;11.60;10.80;;;9.10;99.90;;;;;;10196637;28;20237;-80
2021/10/15 05:17:50;;;;;;;8.83;8.13;;;9.00;99.90;;;;;;10198793;29;20224;-81
2021/10/15 05:22:53;;;;;;;9.10;8.17;;;9.00;99.90;;;;;;10215297;29;20227;-80
2021/10/15 05:27:55;;;;;;;8.47;7.67;;;9.00;99.90;;;;;;10199630;29;20716;-80
2021/10/15 05:32:58;;;;;;;7.10;6.50;;;9.00;99.90;;;;;;10193447;29;20324;-80
2021/10/15 05:38:01;;;;;;;8.70;6.83;;;9.00;99.90;;;;;;10196183;28;20237;-80
2021/10/15 05:43:03;;;;;;;8.50;7.80;;;9.00;99.90;;;;;;10193613;29;20243;-80
2021/10/15 05:48:06;;;;;;;8.40;7.60;;;9.10;99.90;;;;;;10213114;28;20213;-81
2021/10/15 05:53:12;;;;;;;7.40;6.80;;;9.10;99.90;;;;;;10211716;28;20245;-81
2021/10/15 06:03:45;;;;;;;7.70;7.00;;;9.20;99.90;;;;;;10211191;29;20245;-80
2021/10/15 06:14:25;;;;;;;7.53;6.87;;;9.30;99.90;;;;;;10107454;29;20238;-81
2021/10/15 06:19:28;;;;;;;7.80;7.17;;;9.30;99.90;;;;;;10204099;29;20212;-81
2021/10/15 06:24:38;;;;;;;8.23;7.53;;;9.40;99.90;;;;;;10205071;28;20297;-81
2021/10/15 06:29:40;;;;;;;8.40;7.60;;;9.40;99.90;;;;;;10238948;28;20221;-81
2021/10/15 06:34:42;;;;;;;9.00;8.30;;;9.40;99.90;;;;;;10223356;29;20239;-79
2021/10/15 06:39:46;;;;;;;8.30;7.60;;;9.50;99.90;;;;;;10205233;29;20200;-81
2021/10/15 06:44:48;;;;;;;9.00;8.30;;;9.50;99.90;;;;;;10217490;29;20242;-81
2021/10/15 06:49:52;;;;;;;7.70;7.10;;;9.50;99.90;;;;;;10183442;29;20257;-81
2021/10/15 06:54:55;;;;;;;8.83;7.73;;;9.60;99.90;;;;;;10201981;28;20302;-81
2021/10/15 06:59:57;;;;;;;9.33;8.53;;;9.60;99.90;;;;;;10191948;29;20651;-80
2021/10/15 07:05:00;;;;;;;9.00;8.03;;;9.60;99.90;;;;;;10205290;29;20229;-79
2021/10/15 07:10:06;;;;;;;9.87;8.93;;;9.70;99.90;;;;;;10181651;28;20300;-79
2021/10/15 07:15:12;;;;;;;10.70;9.80;;;9.80;99.90;;;;;;10201246;29;20271;-81
2021/10/15 07:20:15;;;;;;;10.37;9.37;;;9.90;99.90;;;;;;10200154;29;20352;-80
2021/10/15 07:25:22;;;;;;;10.63;9.53;;;9.90;99.90;;;;;;10190499;29;20200;-80
2021/10/15 07:30:24;;;;;;;9.70;8.30;;;10.10;99.90;;;;;;10177335;28;20229;-81
2021/10/15 07:35:27;;;;;;;9.97;8.80;;;10.20;99.90;;;;;;10215257;29;20295;-81
2021/10/15 07:40:30;;;;;;;10.43;9.20;;;10.30;99.90;;;;;;10198956;29;20236;-80
2021/10/15 07:45:33;;;;;;;11.17;10.17;;;10.30;99.90;;;;;;10213129;28;20213;-80
2021/10/15 07:50:35;;;;;;;10.37;9.27;;;10.40;99.90;;;;;;10190855;29;20731;-80
2021/10/15 07:55:38;;;;;;;9.87;9.03;;;10.50;99.90;;;;;;10191769;29;20225;-80
2021/10/15 08:00:41;;;;;;;10.40;9.27;;;10.60;99.90;;;;;;10210575;28;20311;-80
2021/10/15 08:05:43;;;;;;;10.80;9.90;;;10.70;99.90;;;;;;10215421;29;20224;-80
2021/10/15 08:10:47;;;;;;;10.47;9.57;;;10.80;99.90;;;;;;10214368;29;20311;-81
2021/10/15 08:15:49;;;;;;;11.90;9.87;;;10.90;99.90;;;;;;10196653;29;20224;-80
2021/10/15 08:20:55;;;;;;;10.77;9.80;;;10.90;99.90;;;;;;10209953;29;20225;-80
2021/10/15 08:25:59;;;;;;;11.00;9.90;;;11.10;99.90;;;;;;10214494;29;20261;-80
2021/10/15 08:31:01;;;;;;;10.73;9.73;;;11.20;99.90;;;;;;10191192;28;20240;-80
2021/10/15 08:36:04;;;;;;;11.10;10.10;;;11.20;99.90;;;;;;10197016;29;20217;-81
2021/10/15 08:41:07;;;;;;;11.90;10.90;;;11.30;99.90;;;;;;10193585;29;20320;-81
2021/10/15 08:46:10;;;;;;;11.30;10.30;;;11.40;99.90;;;;;;10211135;29;20567;-81
2021/10/15 08:51:12;;;;;;;11.43;10.43;;;11.50;99.90;;;;;;10187076;29;20743;-81
2021/10/15 08:56:17;;;;;;;12.00;10.83;;;11.60;99.90;;;;;;10175012;29;20300;-81
2021/10/15 09:01:19;;;;;;;12.37;11.10;;;11.70;99.90;;;;;;10197557;29;20304;-80
2021/10/15 09:06:23;;;;;;;12.07;10.87;;;11.80;99.90;;;;;;10197884;29;20761;-80
2021/10/15 09:11:32;;;;;;;11.77;10.57;;;11.90;99.90;;;;;;10196141;29;20240;-80
2021/10/15 09:16:59;;;;;;;11.77;10.30;;;12.00;99.90;;;;;;10190698;28;20216;-80
2021/10/15 09:22:06;;;;;;;11.23;10.27;;;12.10;99.90;;;;;;10211724;29;20225;-80
2021/10/15 09:27:15;;;;;;;11.83;10.63;;;12.10;99.90;;;;;;10179516;28;20323;-80
2021/10/15 09:32:18;;;;;;;9.70;8.73;;;12.20;99.90;;;;;;10194464;29;20248;-80
2021/10/15 09:37:22;;;;;;;10.87;9.80;;;12.30;99.90;;;;;;10217592;29;20219;-80
2021/10/15 09:42:29;;;;;;;10.63;9.60;;;12.50;99.90;;;;;;10196376;28;20232;-81
2021/10/15 09:47:33;;;;;;;10.40;9.40;;;12.60;99.90;;;;;;10195015;29;20308;-81
2021/10/15 09:52:39;;;;;;;11.07;10.07;;;12.70;99.90;;;;;;10194651;29;20713;-81
2021/10/15 09:57:45;;;;;;;11.67;10.40;;;12.70;99.90;;;;;;10192338;28;20213;-81
2021/10/15 10:02:48;;;;;;;11.30;10.23;;;12.80;99.90;;;;;;10190351;29;20225;-81
2021/10/15 10:07:51;;;;;;;10.43;9.30;;;12.80;99.90;;;;;;10213354;28;20213;-81
2021/10/15 10:12:55;;;;;;;9.40;7.83;;;13.00;99.90;;;;;;10211033;29;20236;-80
2021/10/15 10:18:11;;;;;;;8.83;8.13;;;13.10;99.90;;;;;;10211751;29;20587;-81
2021/10/15 10:23:27;;;;;;;6.33;5.73;;;13.40;99.90;;;;;;10193654;29;20232;-81
2021/10/15 10:28:31;;;;;;;6.30;5.80;;;13.50;99.90;;;;;;10187994;29;20822;-81
2021/10/15 10:33:53;;;;;;;6.27;5.67;;;13.60;99.90;;;;;;10169421;28;20753;-81
2021/10/15 10:38:55;;;;;;;6.40;5.90;;;13.60;99.90;;;;;;10209836;29;20231;-81
2021/10/15 10:44:13;;;;;;;6.83;6.33;;;13.50;99.90;;;;;;10216523;23;20241;-82
2021/10/15 10:49:26;;;;;;;7.93;7.17;;;13.50;99.90;;;;;;10216424;28;20673;-81
2021/10/15 10:54:32;;;;;;;8.03;7.00;;;13.50;99.90;;;;;;10156906;29;20595;-82
2021/10/15 10:59:35;;;;;;;6.20;5.70;;;13.50;99.90;;;;;;10178697;29;20220;-82
2021/10/15 11:04:48;;;;;;;7.83;7.13;;;13.50;99.90;;;;;;10185047;29;20373;-82
2021/10/15 11:09:52;;;;;;;7.13;6.47;;;13.60;99.90;;;;;;10201549;29;20229;-82
2021/10/15 11:14:57;;;;;;;7.27;6.67;;;13.70;99.90;;;;;;10202489;29;20969;-82
2021/10/15 11:20:16;;;;;;;6.73;6.23;;;13.70;99.90;;;;;;10203257;29;20201;-83
2021/10/15 11:25:20;;;;;;;6.20;5.80;;;13.80;99.90;;;;;;10187799;29;20292;-82
2021/10/15 11:30:26;;;;;;;8.23;7.40;;;13.90;99.90;;;;;;10200489;29;20218;-83
2021/10/15 11:35:32;;;;;;;6.60;6.10;;;13.90;99.90;;;;;;10198607;29;20305;-82
2021/10/15 11:40:37;;;;;;;6.50;5.90;;;13.90;99.90;;;;;;10189266;29;20349;-83
2021/10/15 11:45:42;;;;;;;8.50;6.60;;;14.00;99.90;;;;;;10206473;29;20241;-84
2021/10/15 11:50:50;;;;;;;5.33;4.87;;;13.90;99.90;;;;;;10202448;29;20988;-83
2021/10/15 11:55:54;;;;;;;5.30;4.90;;;14.00;99.90;;;;;;10191066;29;20237;-83
2021/10/15 12:01:17;;;;;;;6.43;5.70;;;14.00;99.90;;;;;;10208013;29;20193;-83
2021/10/15 12:06:25;;;;;;;7.07;4.60;;;14.10;99.90;;;;;;10217124;29;20217;-83
2021/10/15 12:11:55;;;;;;;5.50;5.10;;;14.40;99.90;;;;;;10202928;29;20245;-82
2021/10/15 12:17:01;;;;;;;5.77;5.30;;;14.50;99.90;;;;;;10187212;29;20305;-83
2021/10/15 12:22:06;;;;;;;4.70;4.30;;;14.50;99.90;;;;;;10202999;29;20229;-83
2021/10/15 12:27:13;;;;;;;4.70;4.30;;;14.50;99.90;;;;;;10203809;29;20241;-83
2021/10/15 12:32:20;;;;;;;5.20;4.90;;;14.60;99.90;;;;;;10185755;29;20614;-83
2021/10/15 12:37:40;;;;;;;5.43;5.00;;;14.70;99.90;;;;;;10186033;29;20217;-83
2021/10/15 12:42:44;;;;;;;6.50;4.83;;;14.80;99.90;;;;;;10200794;29;20227;-83
2021/10/15 12:47:59;;;;;;;5.60;5.20;;;14.80;99.90;;;;;;10202018;29;20309;-84
2021/10/15 12:53:15;;;;;;;4.80;4.40;;;14.80;99.90;;;;;;10202056;29;20778;-84
2021/10/15 12:58:18;;;;;;;5.27;4.77;;;14.80;99.90;;;;;;10187570;29;20740;-83
2021/10/15 13:03:22;;;;;;;5.07;4.67;;;14.80;99.90;;;;;;10203080;29;20261;-84
2021/10/15 13:08:26;;;;;;;4.90;4.50;;;14.70;99.90;;;;;;10187645;29;20205;-84
2021/10/15 13:13:28;;;;;;;5.60;4.53;;;14.80;99.90;;;;;;10202634;29;20239;-83
2021/10/15 13:18:31;;;;;;;5.13;4.73;;;14.90;99.90;;;;;;10203675;29;20236;-83
2021/10/15 13:23:38;;;;;;;4.30;4.00;;;15.10;99.90;;;;;;10200876;29;20240;-84
2021/10/15 13:28:41;;;;;;;6.23;5.03;;;15.20;99.90;;;;;;10184760;29;20227;-84
2021/10/15 13:33:45;;;;;;;4.93;4.57;;;15.30;99.90;;;;;;10201829;29;20254;-84
2021/10/15 13:38:48;;;;;;;6.80;4.43;;;15.30;99.90;;;;;;10204845;29;20210;-84
2021/10/15 13:44:06;;;;;;;4.17;3.87;;;15.20;99.90;;;;;;10208984;29;20233;-83
2021/10/15 13:54:31;;;;;;;5.00;4.30;;;15.20;99.90;;;;;;10188662;29;21053;-83
2021/10/15 13:59:37;;;;;;;5.30;4.90;;;15.10;99.90;;;;;;10184773;29;20217;-84
2021/10/15 14:04:43;;;;;;;4.90;4.60;;;15.10;99.90;;;;;;10199346;29;20236;-83
2021/10/15 14:09:45;;;;;;;6.53;5.47;;;15.10;99.90;;;;;;10185294;29;20256;-83
2021/10/15 14:14:49;;;;;;;5.10;4.60;;;15.10;99.90;;;;;;10181268;29;20235;-84
2021/10/15 14:19:52;;;;;;;5.13;4.70;;;15.10;99.90;;;;;;10189878;29;20229;-84
2021/10/15 14:24:54;;;;;;;5.20;4.80;;;15.10;99.90;;;;;;10183741;29;20225;-84
2021/10/15 14:29:56;;;;;;;5.83;5.33;;;15.10;99.90;;;;;;10202341;29;20678;-84
2021/10/15 14:35:00;;;;;;;5.80;5.30;;;15.00;99.90;;;;;;10202197;29;20251;-84
2021/10/15 14:40:05;;;;;;;4.83;4.53;;;15.00;99.90;;;;;;10192145;29;20205;-83
2021/10/15 14:45:09;;;;;;;5.47;4.63;;;14.90;99.90;;;;;;10208702;29;20260;-84
2021/10/15 14:50:13;;;;;;;5.07;4.67;;;14.90;99.90;;;;;;10194789;29;20392;-84
2021/10/15 14:55:15;;;;;;;4.80;4.40;;;14.90;99.90;;;;;;10198918;29;20653;-83
2021/10/15 15:00:17;;;;;;;4.10;3.80;;;14.80;99.90;;;;;;10205774;29;20268;-83
2021/10/15 15:05:22;;;;;;;5.20;3.70;;;14.80;99.90;;;;;;10191022;29;20243;-83
2021/10/15 15:10:28;;;;;;;4.13;3.73;;;14.70;99.90;;;;;;10190613;29;20213;-84
2021/10/15 15:15:30;;;;;;;4.20;3.90;;;14.70;99.90;;;;;;10205637;29;20248;-84
2021/10/15 15:20:50;;;;;;;3.37;3.17;;;14.70;99.90;;;;;;10216671;29;20323;-83
2021/10/15 15:25:56;;;;;;;3.83;3.60;;;14.60;99.90;;;;;;10190811;29;20269;-83
2021/10/15 15:30:59;;;;;;;4.13;3.73;;;14.60;99.90;;;;;;10205325;29;20301;-83
2021/10/15 15:36:04;;;;;;;4.37;3.97;;;14.60;99.90;;;;;;10203002;29;20241;-83
2021/10/15 15:41:06;;;;;;;4.20;3.90;;;14.50;99.90;;;;;;10188006;29;20231;-83
2021/10/15 15:46:17;;;;;;;4.20;3.90;;;14.40;99.90;;;;;;10186639;29;20217;-83
2021/10/15 15:51:52;;;;;;;4.00;3.60;;;14.40;99.90;;;;;;10201311;29;20525;-83
2021/10/15 15:57:18;;;;;;;4.60;3.90;;;14.30;99.90;;;;;;10167616;29;20709;-83
2021/10/15 16:02:20;;;;;;;3.93;3.73;;;14.20;99.90;;;;;;10185518;29;20232;-83
2021/10/15 16:07:33;;;;;;;3.83;3.37;;;14.10;99.90;;;;;;10201216;29;20209;-83
2021/10/15 16:12:44;;;;;;;4.00;3.70;;;14.10;99.90;;;;;;10188101;29;20725;-83
2021/10/15 16:17:47;;;;;;;3.43;3.13;;;14.00;99.90;;;;;;10192999;29;21396;-83
2021/10/15 16:22:51;;;;;;;4.60;4.20;;;13.80;99.90;;;;;;10187074;29;20582;-83
2021/10/15 16:27:53;;;;;;;5.07;4.60;;;13.70;99.90;;;;;;10188285;29;20705;-83
2021/10/15 16:32:55;;;;;;;6.17;5.67;;;13.50;99.90;;;;;;10186104;29;20241;-83
2021/10/15 16:37:59;;;;;;;4.70;4.40;;;13.40;99.90;;;;;;10187679;29;20201;-83
2021/10/15 16:43:06;;;;;;;5.93;5.33;;;13.30;99.90;;;;;;10199028;23;20233;-83
2021/10/15 16:48:10;;;;;;;8.13;7.33;;;13.20;99.90;;;;;;10163647;29;20246;-81
2021/10/15 16:53:13;;;;;;;6.67;6.10;;;13.10;99.90;;;;;;10192113;29;20327;-81
2021/10/15 16:58:16;;;;;;;5.20;4.80;;;13.00;99.90;;;;;;10186265;29;20589;-84
2021/10/15 17:03:18;;;;;;;4.33;4.03;;;12.90;99.90;;;;;;10182613;29;20721;-81
2021/10/15 17:08:21;;;;;;;7.23;6.67;;;12.90;99.90;;;;;;10187875;29;20401;-82
2021/10/15 17:13:23;;;;;;;5.30;4.90;;;12.80;99.90;;;;;;10175662;29;20240;-81
2021/10/15 17:18:25;;;;;;;5.00;4.27;;;12.80;99.90;;;;;;10175018;29;20331;-83
2021/10/15 17:23:29;;;;;;;4.80;4.50;;;12.80;99.90;;;;;;10160176;29;20221;-84
2021/10/15 17:28:31;;;;;;;3.57;3.37;;;12.70;99.90;;;;;;10162671;29;20216;-84
2021/10/15 17:33:33;;;;;;;3.50;3.30;;;12.60;99.90;;;;;;10172530;29;20249;-83
2021/10/15 17:38:37;;;;;;;4.77;4.47;;;12.50;99.90;;;;;;10174892;29;20197;-82
2021/10/15 17:43:50;;;;;;;4.70;4.30;;;12.40;99.90;;;;;;10160401;29;20670;-82
2021/10/15 17:48:52;;;;;;;6.10;5.43;;;12.30;99.90;;;;;;10189843;29;20823;-82
2021/10/15 17:53:55;;;;;;;4.77;4.47;;;12.20;99.90;;;;;;10175102;29;20244;-82
2021/10/15 17:58:58;;;;;;;4.20;3.90;;;12.10;99.90;;;;;;10160208;29;20212;-82
2021/10/15 18:04:00;;;;;;;5.47;4.93;;;12.10;99.90;;;;;;10175778;29;20606;-82
2021/10/15 18:09:04;;;;;;;4.50;4.20;;;12.10;99.90;;;;;;10152148;29;20206;-82
2021/10/15 18:14:06;;;;;;;5.10;4.47;;;12.10;99.90;;;;;;10181124;29;20583;-81
2021/10/15 18:19:08;;;;;;;4.17;3.87;;;12.00;99.90;;;;;;10186783;29;20296;-80
2021/10/15 18:24:11;;;;;;;5.43;4.93;;;12.00;99.90;;;;;;10163485;29;20232;-81
2021/10/15 18:29:14;;;;;;;5.93;5.50;;;12.00;99.90;;;;;;10199125;29;20598;-80
2021/10/15 18:34:16;;;;;;;5.93;5.47;;;11.90;99.90;;;;;;10191243;29;20238;-83
2021/10/15 18:39:19;;;;;;;6.73;6.03;;;11.90;99.90;;;;;;10198532;29;20212;-82
2021/10/15 18:44:22;;;;;;;6.80;6.10;;;11.90;99.90;;;;;;10168702;29;21050;-83
2021/10/15 18:49:24;;;;;;;5.17;4.87;;;11.80;99.90;;;;;;10198524;29;20224;-83
2021/10/15 18:54:27;;;;;;;4.97;4.50;;;11.80;99.90;;;;;;10199789;29;20892;-83
2021/10/15 18:59:30;;;;;;;5.30;4.97;;;11.80;99.90;;;;;;10198199;29;20224;-83
2021/10/15 19:04:32;;;;;;;5.57;5.10;;;11.80;99.90;;;;;;10177677;29;20861;-82
2021/10/15 19:09:37;;;;;;;6.50;5.40;;;11.80;99.90;;;;;;10215400;29;20303;-82
2021/10/15 19:14:39;;;;;;;6.90;6.30;;;11.80;99.90;;;;;;10214940;28;20241;-82
2021/10/15 19:19:41;;;;;;;8.13;5.43;;;11.80;99.90;;;;;;10183386;29;20201;-83
2021/10/15 19:24:51;;;;;;;5.70;5.30;;;11.80;99.90;;;;;;10208656;28;20229;-82
2021/10/15 19:29:54;;;;;;;6.00;5.43;;;11.80;99.90;;;;;;10192687;29;20627;-82
2021/10/15 19:34:57;;;;;;;8.40;7.70;;;11.80;99.90;;;;;;10171717;29;20256;-82
2021/10/15 19:40:00;;;;;;;5.27;4.83;;;11.80;99.90;;;;;;10170985;29;20709;-83
2021/10/15 19:45:06;;;;;;;5.93;5.43;;;11.70;99.90;;;;;;10175662;29;20733;-83
2021/10/15 19:50:10;;;;;;;8.00;6.40;;;11.70;99.90;;;;;;10188959;29;20568;-82
2021/10/15 19:55:16;;;;;;;6.77;6.20;;;11.70;99.90;;;;;;10186163;29;20252;-82
2021/10/15 20:00:18;;;;;;;6.27;5.80;;;11.70;99.90;;;;;;10170492;29;20308;-83
2021/10/15 20:05:20;;;;;;;5.10;4.73;;;11.60;99.90;;;;;;10159117;29;20233;-83
2021/10/15 20:10:24;;;;;;;6.70;6.13;;;11.60;99.90;;;;;;10187207;29;20344;-82
2021/10/15 20:15:26;;;;;;;7.93;7.23;;;11.50;99.90;;;;;;10189534;29;20233;-83
2021/10/15 20:20:28;;;;;;;6.00;5.50;;;11.50;99.90;;;;;;10185801;29;21121;-82
2021/10/15 20:25:32;;;;;;;5.60;5.20;;;11.40;99.90;;;;;;10188249;29;20225;-82
2021/10/15 20:30:34;;;;;;;5.53;5.03;;;11.40;99.90;;;;;;10190988;29;20208;-82
2021/10/15 20:35:36;;;;;;;5.20;4.80;;;11.30;99.90;;;;;;10162130;29;20237;-82
2021/10/15 20:40:41;;;;;;;6.23;5.83;;;11.30;99.90;;;;;;10197551;29;20700;-82
2021/10/15 20:45:43;;;;;;;6.60;6.00;;;11.40;99.90;;;;;;10191132;29;20871;-82
2021/10/15 20:50:45;;;;;;;6.60;6.00;;;11.40;99.90;;;;;;10173773;29;20320;-82
2021/10/15 20:55:49;;;;;;;7.70;5.50;;;11.40;99.90;;;;;;10195885;29;20368;-82
2021/10/15 21:00:51;;;;;;;4.77;4.40;;;11.40;99.90;;;;;;10173918;29;20213;-82
2021/10/15 21:05:53;;;;;;;6.57;5.70;;;11.40;99.90;;;;;;10181558;29;20229;-83
2021/10/15 21:10:57;;;;;;;7.17;6.63;;;11.50;99.90;;;;;;10183238;29;20209;-84
2021/10/15 21:16:00;;;;;;;6.60;6.10;;;11.50;99.90;;;;;;10200332;29;20331;-83
2021/10/15 21:21:02;;;;;;;5.80;5.20;;;11.50;99.90;;;;;;10195711;29;20201;-81
2021/10/15 21:26:06;;;;;;;5.70;5.10;;;11.50;99.90;;;;;;10196575;29;20210;-81
2021/10/15 21:31:08;;;;;;;5.93;5.43;;;11.50;99.90;;;;;;10175480;29;20268;-81
2021/10/15 21:36:10;;;;;;;5.93;5.43;;;11.40;99.90;;;;;;10187396;29;20239;-80
2021/10/15 21:41:13;;;;;;;5.93;5.43;;;11.40;99.90;;;;;;10180255;29;20296;-81
2021/10/15 21:46:17;;;;;;;5.30;4.90;;;11.30;99.90;;;;;;10176457;29;20317;-82
2021/10/15 21:51:20;;;;;;;5.93;5.43;;;11.30;99.90;;;;;;10167031;29;20238;-81
2021/10/15 21:56:23;;;;;;;5.40;5.00;;;11.30;99.90;;;;;;10195571;29;20345;-81
2021/10/15 22:01:25;;;;;;;6.33;5.73;;;11.30;99.90;;;;;;10194023;29;20237;-82
2021/10/15 22:06:27;;;;;;;5.43;5.03;;;11.30;99.90;;;;;;10167348;29;20303;-84
2021/10/15 22:11:31;;;;;;;6.17;5.67;;;11.30;99.90;;;;;;10198331;29;20240;-83
2021/10/15 22:16:33;;;;;;;6.83;6.20;;;11.40;99.90;;;;;;10198008;29;20237;-83
2021/10/15 22:21:35;;;;;;;5.93;5.33;;;11.40;99.90;;;;;;10165146;29;20235;-84
2021/10/15 22:26:39;;;;;;;6.10;5.10;;;11.50;99.90;;;;;;10180692;29;20205;-81
2021/10/15 22:31:41;;;;;;;7.07;6.43;;;11.60;99.90;;;;;;10201927;29;20238;-82
2021/10/15 22:36:44;;;;;;;7.77;7.07;;;11.70;99.90;;;;;;10202417;29;20701;-81
2021/10/15 22:41:47;;;;;;;7.13;6.60;;;11.80;99.90;;;;;;10204090;23;20241;-80
2021/10/15 22:46:49;;;;;;;7.73;7.13;;;11.90;99.90;;;;;;10175850;29;20225;-80
2021/10/15 22:51:51;;;;;;;7.37;6.77;;;11.90;99.90;;;;;;10185633;29;20740;-80
2021/10/15 22:56:55;;;;;;;7.70;7.00;;;11.90;99.90;;;;;;10185355;29;20214;-80
2021/10/15 23:01:57;;;;;;;8.50;7.90;;;12.00;99.90;;;;;;10188208;29;20237;-80
2021/10/15 23:06:59;;;;;;;7.00;6.30;;;12.00;99.90;;;;;;10211006;29;20237;-80
2021/10/15 23:12:03;;;;;;;7.03;6.43;;;12.00;99.90;;;;;;10192388;29;20233;-80
2021/10/15 23:17:05;;;;;;;6.70;6.20;;;12.10;99.90;;;;;;10205354;29;20209;-80
2021/10/15 23:22:07;;;;;;;8.40;6.70;;;12.10;99.90;;;;;;10194561;29;20233;-80
2021/10/15 23:27:10;;;;;;;6.50;5.90;;;12.10;99.90;;;;;;10175574;29;20213;-80
2021/10/15 23:32:13;;;;;;;5.77;5.37;;;12.10;99.90;;;;;;10186318;29;20231;-80
2021/10/15 23:37:15;;;;;;;7.17;6.50;;;12.10;99.90;;;;;;10218132;29;20208;-80
2021/10/15 23:42:18;;;;;;;6.43;5.93;;;12.10;99.90;;;;;;10202711;29;20264;-79
2021/10/15 23:47:21;;;;;;;6.83;6.27;;;12.10;99.90;;;;;;10190064;29;20305;-80
2021/10/15 23:52:23;;;;;;;6.60;6.00;;;12.10;99.90;;;;;;10183779;29;20252;-80
2021/10/15 23:57:26;;;;;;;7.10;6.40;;;12.10;99.90;;;;;;10201676;29;20210;-80
